Airfield :
LOGIN :

Register | Disclaimer

   EN    FR    IT 

 










Legend :    VFR   Marginal VFR   IFR   Intensive IFR   Very Intensive IFR
Visi :
Ceiling :
>= 8 km
>= 3000ft
5 to 8 km
1000 to 3000 ft
1500m to 5 km
500 to 1000 ft
800 to 1500m
200 to 500 ft
< 800m
< 200 ft
Symbols :   Thunderstorms  Fog  Heavy snow  Heavy precipitations  Wind > 20 kt
SIGMETs :     Misc.  Thunderstorms  Icing  Turbulence  Mountain Waves  Volcanic Ashes






- Airport Elevation : 25 ft
- IATA code : QCY


EGXC - RAF Coningsby

CURRENT METAR :
  • 071850Z 24006KT 9999 FEW008 BKN035 BKN090 13/12 Q1016 RMK BLU

EXPIRED METARs :
  • 071750Z 25006KT 9999 -RA FEW008 BKN028 13/12 Q1016 RMK BLU
  • 071650Z 25006KT 9999 -RA FEW008 BKN045 OVC070 13/12 Q1017 RMK BLU

TAF TAF EGXC
Valid from the 07 at 18:00 until the 08 at 12:00 UTC


071631Z 0718/0812 27006KT 9999 FEW008 SCT030 BKN040
TEMPO 0718/0806 BKN008
PROB40
TEMPO 0718/0719 4000 +RA
PROB30
TEMPO 0719/0806 4000 RADZ SCT005
PROB30
TEMPO 0806/0809 5000 -RADZ SCT010
TEMPO 0809/0812 SCT018



MET'MAP, your aeronautical weather chart ! - Copyright ORBIFLY December 2007 - Disclaimer

ORBIFLY MET'MAP TEAM :

Programming & Development : Alexandra Zaïnal
Concept & original design : Baudouin d'Aumeries
Assistance for programming : Marc-Olivier Méhu
Technical & hardware support : Manuel Goepfert

Contact : metmap@orbifly.com




SOURCES & CREDITS :

   NOAA